createdAt,value
2023-01-17T00:02:01.155Z,1.73
2023-01-17T00:04:21.639Z,1.60
2023-01-17T00:06:45.040Z,1.70
2023-01-17T00:09:05.313Z,2.45
2023-01-17T00:11:06.962Z,2.67
2023-01-17T00:13:08.708Z,2.17
2023-01-17T00:15:10.907Z,1.75
2023-01-17T00:17:12.893Z,1.50
2023-01-17T00:19:33.087Z,2.13
2023-01-17T00:22:00.754Z,1.40
2023-01-17T00:24:20.749Z,2.55
2023-01-17T00:26:22.501Z,2.35
2023-01-17T00:28:25.079Z,1.48
2023-01-17T00:30:26.821Z,1.40
2023-01-17T00:32:28.435Z,1.95
2023-01-17T00:34:30.038Z,1.98
2023-01-17T00:36:31.631Z,1.90
2023-01-17T00:38:35.231Z,2.20
2023-01-17T00:40:38.660Z,1.25
2023-01-17T00:42:40.349Z,1.65
2023-01-17T00:45:01.002Z,1.77
2023-01-17T00:47:21.193Z,1.80
2023-01-17T00:49:41.411Z,1.73
2023-01-17T00:52:01.678Z,1.85
2023-01-17T00:54:22.532Z,1.95
2023-01-17T00:56:42.653Z,1.60
2023-01-17T00:59:03.122Z,1.40
2023-01-17T01:01:26.611Z,1.98
2023-01-17T01:03:47.291Z,1.63
2023-01-17T01:06:07.687Z,2.38
2023-01-17T01:08:40.668Z,1.88
2023-01-17T01:11:02.002Z,2.00
2023-01-17T01:13:22.200Z,1.77
2023-01-17T01:15:42.542Z,1.95
2023-01-17T01:18:02.964Z,2.03
2023-01-17T01:20:23.925Z,1.60
2023-01-17T01:22:44.275Z,2.28
2023-01-17T01:25:04.615Z,1.75
2023-01-17T01:27:24.807Z,1.95
2023-01-17T01:29:45.093Z,2.35
2023-01-17T01:32:05.420Z,1.63
2023-01-17T01:34:08.287Z,1.88
2023-01-17T01:36:10.107Z,2.50
2023-01-17T01:38:11.785Z,2.25
2023-01-17T01:40:14.404Z,1.52
2023-01-17T01:42:17.026Z,1.48
2023-01-17T01:44:46.602Z,1.60
2023-01-17T01:46:48.236Z,2.05
2023-01-17T01:48:51.523Z,2.00
2023-01-17T01:50:53.232Z,1.95
2023-01-17T01:52:57.753Z,1.63
2023-01-17T01:55:04.213Z,1.52
2023-01-17T01:57:07.683Z,1.83
2023-01-17T01:59:11.497Z,1.75
2023-01-17T02:01:13.497Z,2.30
2023-01-17T02:03:19.226Z,2.22
2023-01-17T02:05:22.913Z,1.52
2023-01-17T02:07:29.301Z,1.95
2023-01-17T02:09:30.919Z,2.70
2023-01-17T02:11:33.916Z,2.10
2023-01-17T02:13:36.044Z,1.92
2023-01-17T02:15:45.971Z,2.35
2023-01-17T02:18:00.389Z,2.30
2023-01-17T02:20:20.383Z,3.53
2023-01-17T02:22:31.174Z,2.33
2023-01-17T02:24:59.014Z,1.83
2023-01-17T02:27:24.681Z,1.88
2023-01-17T02:29:38.501Z,1.83
2023-01-17T02:31:45.765Z,2.55
2023-01-17T02:33:55.770Z,1.90
2023-01-17T02:36:06.268Z,2.58
2023-01-17T02:38:25.909Z,2.67
2023-01-17T02:40:41.758Z,2.72
2023-01-17T02:42:48.593Z,2.28
2023-01-17T02:44:50.255Z,1.80
2023-01-17T02:46:55.590Z,2.55
2023-01-17T02:48:57.965Z,2.17
2023-01-17T02:51:11.413Z,1.83
2023-01-17T02:53:27.373Z,2.33
2023-01-17T02:55:44.282Z,2.50
2023-01-17T02:57:53.612Z,2.38
2023-01-17T02:59:58.305Z,2.55
2023-01-17T03:02:18.680Z,2.47
2023-01-17T03:04:24.744Z,2.20
2023-01-17T03:06:32.481Z,2.55
2023-01-17T03:08:34.635Z,2.17
2023-01-17T03:10:36.488Z,2.30
2023-01-17T03:12:38.831Z,2.28
2023-01-17T03:14:40.551Z,2.05
2023-01-17T03:16:42.344Z,2.33
2023-01-17T03:18:44.092Z,2.53
2023-01-17T03:20:45.801Z,2.03
2023-01-17T03:22:47.450Z,2.40
2023-01-17T03:24:49.125Z,2.45
2023-01-17T03:26:50.715Z,2.08
2023-01-17T03:28:52.374Z,3.10
2023-01-17T03:30:54.027Z,3.45
2023-01-17T03:32:55.715Z,2.72
2023-01-17T03:34:57.410Z,2.45
2023-01-17T03:36:59.055Z,2.67
2023-01-17T03:39:00.723Z,2.13
2023-01-17T03:41:02.344Z,2.35
2023-01-17T03:43:04.040Z,2.28
2023-01-17T03:45:06.082Z,1.92
2023-01-17T03:47:12.068Z,1.90
2023-01-17T03:49:13.947Z,1.92
2023-01-17T03:51:16.023Z,2.53
2023-01-17T03:53:17.704Z,2.10
2023-01-17T03:55:19.413Z,2.13
2023-01-17T03:57:21.088Z,1.65
2023-01-17T03:59:22.867Z,1.77
2023-01-17T04:01:25.274Z,2.10
2023-01-17T04:03:27.149Z,2.25
2023-01-17T04:05:28.802Z,2.20
2023-01-17T04:07:30.646Z,1.60
2023-01-17T04:09:34.113Z,2.25
2023-01-17T04:11:35.736Z,2.80
2023-01-17T04:13:37.358Z,2.30
2023-01-17T04:15:39.203Z,1.75
2023-01-17T04:17:40.836Z,2.20
2023-01-17T04:19:42.558Z,2.47
2023-01-17T04:21:44.240Z,2.15
2023-01-17T04:23:45.889Z,2.47
2023-01-17T04:25:47.511Z,2.40
2023-01-17T04:27:49.124Z,2.50
2023-01-17T04:29:50.849Z,1.92
2023-01-17T04:31:52.598Z,1.90
2023-01-17T04:33:54.300Z,2.13
2023-01-17T04:35:56.447Z,3.03
2023-01-17T04:37:58.125Z,2.30
2023-01-17T04:39:59.788Z,1.63
2023-01-17T04:42:01.461Z,1.88
2023-01-17T04:44:03.240Z,1.60
2023-01-17T04:46:10.072Z,1.83
2023-01-17T04:48:12.854Z,1.90
2023-01-17T04:50:14.788Z,2.17
2023-01-17T04:52:18.839Z,2.97
2023-01-17T04:54:20.475Z,1.90
2023-01-17T04:56:22.139Z,2.47
2023-01-17T04:58:24.301Z,1.98
2023-01-17T05:00:26.011Z,2.20
2023-01-17T05:02:27.744Z,2.08
2023-01-17T05:04:29.466Z,2.22
2023-01-17T05:06:31.188Z,1.50
2023-01-17T05:08:32.981Z,1.33
2023-01-17T05:10:34.654Z,2.08
2023-01-17T05:12:36.478Z,2.22
2023-01-17T05:14:38.184Z,2.05
2023-01-17T05:16:39.848Z,2.35
2023-01-17T05:18:41.553Z,2.45
2023-01-17T05:20:43.283Z,2.33
2023-01-17T05:22:45.149Z,2.65
2023-01-17T05:24:48.059Z,2.53
2023-01-17T05:26:54.851Z,2.55
2023-01-17T05:28:56.681Z,2.33
2023-01-17T05:30:58.429Z,2.75
2023-01-17T05:33:00.181Z,2.63
2023-01-17T05:35:02.722Z,2.40
2023-01-17T05:37:04.425Z,1.83
2023-01-17T05:39:06.258Z,2.25
2023-01-17T05:41:07.985Z,2.47
2023-01-17T05:43:09.784Z,2.03
2023-01-17T05:45:12.551Z,2.70
2023-01-17T05:47:14.281Z,3.05
2023-01-17T05:49:15.989Z,2.63
2023-01-17T05:51:17.641Z,2.40
2023-01-17T05:53:19.467Z,4.00
2023-01-17T05:55:21.727Z,1.88
2023-01-17T05:57:23.538Z,2.35
2023-01-17T05:59:36.546Z,2.65
2023-01-17T06:01:39.489Z,2.67
2023-01-17T06:03:41.173Z,2.22
2023-01-17T06:05:43.291Z,1.98
2023-01-17T06:07:46.111Z,2.17
2023-01-17T06:09:47.935Z,1.98
2023-01-17T06:11:49.718Z,2.22
2023-01-17T06:13:51.677Z,2.28
2023-01-17T06:15:53.482Z,2.70
2023-01-17T06:17:55.567Z,2.53
2023-01-17T06:19:57.301Z,2.60
2023-01-17T06:21:58.981Z,2.22
2023-01-17T06:24:02.658Z,2.88
2023-01-17T06:26:05.856Z,3.08
2023-01-17T06:28:07.758Z,2.53
2023-01-17T06:30:09.976Z,2.08
2023-01-17T06:32:13.381Z,2.22
2023-01-17T06:34:15.023Z,3.38
2023-01-17T06:36:16.653Z,2.15
2023-01-17T06:38:18.776Z,2.85
2023-01-17T06:40:20.397Z,2.95
2023-01-17T06:42:22.215Z,3.38
2023-01-17T06:44:24.196Z,3.47
2023-01-17T06:46:26.005Z,3.17
2023-01-17T06:48:28.111Z,2.72
2023-01-17T06:50:30.363Z,3.22
2023-01-17T06:52:31.993Z,3.67
2023-01-17T06:54:33.666Z,2.92
2023-01-17T06:56:35.533Z,3.92
2023-01-17T06:58:37.224Z,2.53
2023-01-17T07:00:40.778Z,2.50
2023-01-17T07:02:42.889Z,3.13
2023-01-17T07:04:44.535Z,3.40
2023-01-17T07:06:46.193Z,3.80
2023-01-17T07:08:49.014Z,2.30
2023-01-17T07:10:50.692Z,3.83
2023-01-17T07:12:58.744Z,3.20
2023-01-17T07:15:00.649Z,2.33
2023-01-17T07:17:02.287Z,2.65
2023-01-17T07:19:04.149Z,2.63
2023-01-17T07:21:06.018Z,2.20
2023-01-17T07:23:07.758Z,2.33
2023-01-17T07:25:09.616Z,2.88
2023-01-17T07:27:11.261Z,2.78
2023-01-17T07:29:13.162Z,3.30
2023-01-17T07:31:14.935Z,2.90
2023-01-17T07:33:17.432Z,4.07
2023-01-17T07:35:19.935Z,2.92
2023-01-17T07:37:22.175Z,3.80
2023-01-17T07:39:24.045Z,3.47
2023-01-17T07:41:25.864Z,3.35
2023-01-17T07:43:27.754Z,2.65
2023-01-17T07:45:29.618Z,3.78
2023-01-17T07:47:33.636Z,2.90
2023-01-17T07:49:35.463Z,2.53
2023-01-17T07:51:37.091Z,3.63
2023-01-17T07:53:38.911Z,3.83
2023-01-17T07:55:40.878Z,3.20
2023-01-17T07:57:42.987Z,3.30
2023-01-17T07:59:44.846Z,3.95
2023-01-17T08:01:46.715Z,2.45
2023-01-17T08:03:51.206Z,2.65
2023-01-17T08:06:01.864Z,3.72
2023-01-17T08:08:03.819Z,2.65
2023-01-17T08:10:07.425Z,2.35
2023-01-17T08:12:09.399Z,3.10
2023-01-17T08:14:11.233Z,2.53
2023-01-17T08:16:13.694Z,3.50
2023-01-17T08:18:16.824Z,3.65
2023-01-17T08:20:22.167Z,4.45
2023-01-17T08:22:24.527Z,3.10
2023-01-17T08:24:26.626Z,3.75
2023-01-17T08:26:28.349Z,4.30
2023-01-17T08:28:30.206Z,4.50
2023-01-17T08:30:31.999Z,3.40
2023-01-17T08:32:34.790Z,4.18
2023-01-17T08:34:36.643Z,3.13
2023-01-17T08:36:38.391Z,2.55
2023-01-17T08:38:40.281Z,3.25
2023-01-17T08:40:43.164Z,2.85
2023-01-17T08:42:45.074Z,2.90
2023-01-17T08:44:46.847Z,2.58
2023-01-17T08:46:48.860Z,2.42
2023-01-17T08:48:59.061Z,3.33
2023-01-17T08:51:04.370Z,2.28
2023-01-17T08:53:06.164Z,3.00
2023-01-17T08:55:10.250Z,3.15
2023-01-17T08:57:12.030Z,13.20
2023-01-17T08:59:14.010Z,5.97
2023-01-17T09:01:16.401Z,5.95
2023-01-17T09:03:18.159Z,4.72
2023-01-17T09:05:19.961Z,3.75
2023-01-17T09:07:21.713Z,3.03
2023-01-17T09:09:23.758Z,2.58
2023-01-17T09:11:25.555Z,2.75
2023-01-17T09:13:27.646Z,2.83
2023-01-17T09:15:29.415Z,3.28
2023-01-17T09:17:31.240Z,3.58
2023-01-17T09:19:33.018Z,3.13
2023-01-17T09:21:34.883Z,3.97
2023-01-17T09:23:36.619Z,3.67
2023-01-17T09:25:39.935Z,3.55
2023-01-17T09:27:46.043Z,3.65
2023-01-17T09:29:47.811Z,3.55
2023-01-17T09:31:49.453Z,3.38
2023-01-17T09:33:52.182Z,5.93
2023-01-17T09:35:53.807Z,7.40
2023-01-17T09:37:57.263Z,5.60
2023-01-17T09:39:58.983Z,5.88
2023-01-17T09:42:21.060Z,4.82
2023-01-17T09:44:42.137Z,4.07
2023-01-17T09:46:46.764Z,3.42
2023-01-17T09:48:51.409Z,4.63
2023-01-17T09:51:03.663Z,3.53
2023-01-17T09:53:17.089Z,3.25
2023-01-17T09:55:19.448Z,2.47
2023-01-17T09:57:47.030Z,2.92
2023-01-17T10:00:13.912Z,2.92
2023-01-17T10:02:26.726Z,2.92
2023-01-17T10:04:28.504Z,3.40
2023-01-17T10:07:05.055Z,3.08
2023-01-17T10:09:34.989Z,3.80
2023-01-17T10:11:55.269Z,2.60
2023-01-17T10:14:31.482Z,2.28
2023-01-17T10:16:58.889Z,2.85
2023-01-17T10:19:00.852Z,2.38
2023-01-17T10:21:27.935Z,3.17
2023-01-17T10:23:54.053Z,2.30
2023-01-17T10:25:59.251Z,1.85
2023-01-17T10:28:06.587Z,3.28
2023-01-17T10:30:48.648Z,2.78
2023-01-17T10:32:51.016Z,1.60
2023-01-17T10:34:54.075Z,2.40
2023-01-17T10:37:04.295Z,3.85
2023-01-17T10:39:50.879Z,5.13
2023-01-17T10:41:59.194Z,3.67
2023-01-17T10:44:06.875Z,2.70
2023-01-17T10:46:16.061Z,2.70
2023-01-17T10:48:34.496Z,2.95
2023-01-17T10:51:13.947Z,3.63
2023-01-17T10:53:49.152Z,2.22
2023-01-17T10:55:56.189Z,2.10
2023-01-17T10:57:58.736Z,2.10
2023-01-17T11:00:01.572Z,2.28
2023-01-17T11:02:10.511Z,1.75
2023-01-17T11:04:40.699Z,1.75
2023-01-17T11:06:57.243Z,2.05
2023-01-17T11:09:02.199Z,1.67
2023-01-17T11:11:05.078Z,1.60
2023-01-17T11:13:29.573Z,2.17
2023-01-17T11:15:32.878Z,1.98
2023-01-17T11:17:37.549Z,1.55
2023-01-17T11:19:40.618Z,1.40
2023-01-17T11:21:54.638Z,1.85
2023-01-17T11:23:59.499Z,1.80
2023-01-17T11:26:03.792Z,1.65
2023-01-17T11:28:30.806Z,1.88
2023-01-17T11:30:32.885Z,2.33
2023-01-17T11:32:35.289Z,1.42
2023-01-17T11:34:37.224Z,1.52
2023-01-17T11:36:39.029Z,1.75
2023-01-17T11:39:07.217Z,2.28
2023-01-17T11:41:22.209Z,1.58
2023-01-17T11:43:26.867Z,1.80
2023-01-17T11:45:29.705Z,1.75
2023-01-17T11:47:31.517Z,1.73
2023-01-17T11:49:33.702Z,1.85
2023-01-17T11:51:42.243Z,2.20
2023-01-17T11:53:49.067Z,1.67
2023-01-17T11:56:07.084Z,1.30
2023-01-17T11:58:14.626Z,1.17
2023-01-17T12:00:33.449Z,0.90
2023-01-17T12:02:47.714Z,1.35
2023-01-17T12:05:10.436Z,1.35
2023-01-17T12:07:15.192Z,0.93
2023-01-17T12:09:23.122Z,1.95
2023-01-17T12:12:09.074Z,1.27
2023-01-17T12:14:20.283Z,1.10
2023-01-17T12:16:29.339Z,1.48
2023-01-17T12:18:31.149Z,1.25
2023-01-17T12:20:52.035Z,1.60
2023-01-17T12:22:59.987Z,1.15
2023-01-17T12:25:34.396Z,1.55
2023-01-17T12:27:39.426Z,1.33
2023-01-17T12:29:52.987Z,1.30
2023-01-17T12:32:29.788Z,1.05
2023-01-17T12:34:42.109Z,1.23
2023-01-17T12:37:05.807Z,1.23
2023-01-17T12:39:10.251Z,1.20
2023-01-17T12:41:23.507Z,1.27
2023-01-17T12:43:33.551Z,1.30
2023-01-17T12:45:39.183Z,1.88
2023-01-17T12:47:44.926Z,1.40
2023-01-17T12:50:16.261Z,1.83
2023-01-17T12:52:29.961Z,1.17
2023-01-17T12:54:36.859Z,1.10
2023-01-17T12:56:52.697Z,1.20
2023-01-17T12:59:07.489Z,1.40
2023-01-17T13:01:23.743Z,1.77
2023-01-17T13:04:10.605Z,1.35
2023-01-17T13:06:22.767Z,0.95
2023-01-17T13:08:46.508Z,1.58
2023-01-17T13:11:10.167Z,1.20
2023-01-17T13:13:22.437Z,1.27
2023-01-17T13:15:27.325Z,1.27
2023-01-17T13:17:45.006Z,1.33
2023-01-17T13:20:11.606Z,1.13
2023-01-17T13:22:18.099Z,1.45
2023-01-17T13:24:32.693Z,1.20
2023-01-17T13:26:53.228Z,1.10
2023-01-17T13:29:13.379Z,2.00
2023-01-17T13:31:36.961Z,1.27
2023-01-17T13:33:47.434Z,1.23
2023-01-17T13:35:55.188Z,1.15
2023-01-17T13:38:14.971Z,1.60
2023-01-17T13:40:29.454Z,1.38
2023-01-17T13:42:52.753Z,1.30
2023-01-17T13:44:54.567Z,1.17
2023-01-17T13:47:01.160Z,1.05
2023-01-17T13:49:23.553Z,1.70
2023-01-17T13:52:05.358Z,1.60
2023-01-17T13:54:07.610Z,1.60
2023-01-17T13:56:27.673Z,1.33
2023-01-17T13:58:30.073Z,1.67
2023-01-17T14:00:43.580Z,1.38
2023-01-17T14:02:48.981Z,1.67
2023-01-17T14:05:13.467Z,1.55
2023-01-17T14:07:20.968Z,1.25
2023-01-17T14:09:38.152Z,1.90
2023-01-17T14:11:58.129Z,1.52
2023-01-17T14:14:35.809Z,1.63
2023-01-17T14:16:37.500Z,1.52
2023-01-17T14:18:41.276Z,1.42
2023-01-17T14:20:46.319Z,1.75
2023-01-17T14:22:54.591Z,1.35
2023-01-17T14:25:10.152Z,1.98
2023-01-17T14:27:16.652Z,1.40
2023-01-17T14:29:42.979Z,1.45
2023-01-17T14:31:44.791Z,1.17
2023-01-17T14:33:49.639Z,1.15
2023-01-17T14:36:22.104Z,1.35
2023-01-17T14:38:26.105Z,1.67
2023-01-17T14:40:30.793Z,1.45
2023-01-17T14:42:33.322Z,1.50
2023-01-17T14:44:35.032Z,1.77
2023-01-17T14:46:36.690Z,1.50
2023-01-17T14:48:39.978Z,1.95
2023-01-17T14:50:43.493Z,1.48
2023-01-17T14:52:45.203Z,1.83
2023-01-17T14:54:52.620Z,2.03
2023-01-17T14:57:14.164Z,1.58
2023-01-17T14:59:20.281Z,1.80
2023-01-17T15:01:22.126Z,1.95
2023-01-17T15:03:24.103Z,2.03
2023-01-17T15:05:27.208Z,2.03
2023-01-17T15:07:29.012Z,1.83
2023-01-17T15:09:34.559Z,2.70
2023-01-17T15:11:36.773Z,2.00
2023-01-17T15:13:45.151Z,2.15
2023-01-17T15:15:47.042Z,1.80
2023-01-17T15:17:48.770Z,1.92
2023-01-17T15:19:56.003Z,1.98
2023-01-17T15:21:57.790Z,1.98
2023-01-17T15:24:25.832Z,2.42
2023-01-17T15:26:30.239Z,2.08
2023-01-17T15:28:33.608Z,2.03
2023-01-17T15:30:35.309Z,2.53
2023-01-17T15:32:38.062Z,2.65
2023-01-17T15:34:45.021Z,2.10
2023-01-17T15:36:49.335Z,2.92
2023-01-17T15:39:00.327Z,2.55
2023-01-17T15:41:14.420Z,2.95
2023-01-17T15:43:20.312Z,2.45
2023-01-17T15:45:28.923Z,3.05
2023-01-17T15:47:40.630Z,3.10
2023-01-17T15:49:50.602Z,2.08
2023-01-17T15:51:55.565Z,3.15
2023-01-17T15:53:57.232Z,3.50
2023-01-17T15:55:59.717Z,3.15
2023-01-17T15:58:01.994Z,3.38
2023-01-17T16:00:14.871Z,3.05
2023-01-17T16:02:33.949Z,4.13
2023-01-17T16:04:37.367Z,4.10
2023-01-17T16:06:45.614Z,4.13
2023-01-17T16:08:53.129Z,3.72
2023-01-17T16:10:58.611Z,4.05
2023-01-17T16:13:00.487Z,3.13
2023-01-17T16:15:12.410Z,3.40
2023-01-17T16:17:17.337Z,4.20
2023-01-17T16:19:19.035Z,3.50
2023-01-17T16:21:23.705Z,3.40
2023-01-17T16:23:25.656Z,3.70
2023-01-17T16:25:32.391Z,4.40
2023-01-17T16:27:34.152Z,3.22
2023-01-17T16:29:35.856Z,3.20
2023-01-17T16:31:37.606Z,4.35
2023-01-17T16:33:39.543Z,2.88
2023-01-17T16:35:43.054Z,2.65
2023-01-17T16:38:05.260Z,3.38
2023-01-17T16:40:08.444Z,2.80
2023-01-17T16:42:11.868Z,2.83
2023-01-17T16:44:13.592Z,2.40
2023-01-17T16:46:15.628Z,3.30
2023-01-17T16:48:19.229Z,2.72
2023-01-17T16:50:23.552Z,2.65
2023-01-17T16:52:25.232Z,3.17
2023-01-17T16:54:27.526Z,2.47
2023-01-17T16:56:29.275Z,2.83
2023-01-17T16:58:30.960Z,2.65
2023-01-17T17:00:32.634Z,2.17
2023-01-17T17:02:34.364Z,3.65
2023-01-17T17:04:36.066Z,3.03
2023-01-17T17:06:37.744Z,2.67
2023-01-17T17:08:39.915Z,3.33
2023-01-17T17:10:41.592Z,3.38
2023-01-17T17:12:43.707Z,3.30
2023-01-17T17:14:45.341Z,3.60
2023-01-17T17:16:47.648Z,3.08
2023-01-17T17:19:00.331Z,3.88
2023-01-17T17:21:02.507Z,3.35
2023-01-17T17:23:04.218Z,4.55
2023-01-17T17:25:06.890Z,3.97
2023-01-17T17:27:08.589Z,5.03
2023-01-17T17:29:13.528Z,5.38
2023-01-17T17:31:15.276Z,3.80
2023-01-17T17:33:17.076Z,4.00
2023-01-17T17:35:18.734Z,3.72
2023-01-17T17:37:21.956Z,6.45
2023-01-17T17:39:23.609Z,4.25
2023-01-17T17:41:30.176Z,5.07
2023-01-17T17:43:35.677Z,3.78
2023-01-17T17:45:37.338Z,4.45
2023-01-17T17:47:39.042Z,4.10
2023-01-17T17:49:40.707Z,4.78
2023-01-17T17:51:42.929Z,3.88
2023-01-17T17:53:44.797Z,3.53
2023-01-17T17:55:46.955Z,4.72
2023-01-17T17:57:48.634Z,4.35
2023-01-17T17:59:50.282Z,4.45
2023-01-17T18:01:52.336Z,4.40
2023-01-17T18:03:56.133Z,4.28
2023-01-17T18:06:05.718Z,5.07
2023-01-17T18:08:07.542Z,6.38
2023-01-17T18:10:09.916Z,5.15
2023-01-17T18:12:11.593Z,5.40
2023-01-17T18:14:14.390Z,4.43
2023-01-17T18:16:19.414Z,4.20
2023-01-17T18:18:21.193Z,4.55
2023-01-17T18:20:23.027Z,4.97
2023-01-17T18:22:24.743Z,4.07
2023-01-17T18:24:27.082Z,5.18
2023-01-17T18:26:36.201Z,5.70
2023-01-17T18:28:37.888Z,4.50
2023-01-17T18:30:39.527Z,5.30
2023-01-17T18:32:42.772Z,3.60
2023-01-17T18:34:45.117Z,5.55
2023-01-17T18:36:47.055Z,4.22
2023-01-17T18:38:48.806Z,4.95
2023-01-17T18:40:50.462Z,4.07
2023-01-17T18:42:52.554Z,3.60
2023-01-17T18:44:54.449Z,4.90
2023-01-17T18:47:04.588Z,7.75
2023-01-17T18:49:06.670Z,12.70
2023-01-17T18:51:10.893Z,11.93
2023-01-17T18:53:12.615Z,8.05
2023-01-17T18:55:14.295Z,6.32
2023-01-17T18:57:16.282Z,4.95
2023-01-17T18:59:23.640Z,4.47
2023-01-17T19:01:27.569Z,2.95
2023-01-17T19:03:31.618Z,3.33
2023-01-17T19:05:36.019Z,3.45
2023-01-17T19:07:37.743Z,4.32
2023-01-17T19:09:39.446Z,3.78
2023-01-17T19:11:43.101Z,3.25
2023-01-17T19:13:45.022Z,3.00
2023-01-17T19:15:46.715Z,3.17
2023-01-17T19:17:48.522Z,3.28
2023-01-17T19:19:50.207Z,2.83
2023-01-17T19:21:52.341Z,2.88
2023-01-17T19:23:55.041Z,2.78
2023-01-17T19:25:59.440Z,2.45
2023-01-17T19:28:01.305Z,2.50
2023-01-17T19:30:03.075Z,3.42
2023-01-17T19:32:05.009Z,4.65
2023-01-17T19:34:06.691Z,5.78
2023-01-17T19:36:13.517Z,5.85
2023-01-17T19:38:15.274Z,3.72
2023-01-17T19:40:19.007Z,3.55
2023-01-17T19:42:20.730Z,4.05
2023-01-17T19:44:22.377Z,4.18
2023-01-17T19:46:27.381Z,3.92
2023-01-17T19:48:29.227Z,4.35
2023-01-17T19:50:30.883Z,4.05
2023-01-17T19:52:32.650Z,4.53
2023-01-17T19:54:34.270Z,3.75
2023-01-17T19:56:36.198Z,3.78
2023-01-17T19:58:38.557Z,3.83
2023-01-17T20:00:46.553Z,5.05
2023-01-17T20:02:48.609Z,3.47
2023-01-17T20:04:50.385Z,4.57
2023-01-17T20:06:53.476Z,4.57
2023-01-17T20:08:55.623Z,4.38
2023-01-17T20:11:26.715Z,3.65
2023-01-17T20:13:28.447Z,4.55
2023-01-17T20:15:31.082Z,4.03
2023-01-17T20:17:34.543Z,3.58
2023-01-17T20:19:36.426Z,4.75
2023-01-17T20:21:38.091Z,3.90
2023-01-17T20:23:44.613Z,3.80
2023-01-17T20:26:03.554Z,4.60
2023-01-17T20:28:05.320Z,4.82
2023-01-17T20:30:19.675Z,3.83
2023-01-17T20:32:21.976Z,4.20
2023-01-17T20:34:25.711Z,3.53
2023-01-17T20:36:29.096Z,3.95
2023-01-17T20:38:43.643Z,3.30
2023-01-17T20:40:54.405Z,3.72
2023-01-17T20:42:56.122Z,3.00
2023-01-17T20:44:57.869Z,3.85
2023-01-17T20:46:59.513Z,3.78
2023-01-17T20:49:05.403Z,3.55
2023-01-17T20:51:10.655Z,3.88
2023-01-17T20:53:13.278Z,3.47
2023-01-17T20:55:15.127Z,4.72
2023-01-17T20:57:16.801Z,4.10
2023-01-17T20:59:21.714Z,3.67
2023-01-17T21:01:23.705Z,4.47
2023-01-17T21:03:30.190Z,4.03
2023-01-17T21:05:31.857Z,3.90
2023-01-17T21:07:33.604Z,3.90
2023-01-17T21:09:35.294Z,2.83
2023-01-17T21:11:37.721Z,3.45
2023-01-17T21:13:40.204Z,3.22
2023-01-17T21:15:47.259Z,3.13
2023-01-17T21:17:49.274Z,2.58
2023-01-17T21:19:50.912Z,2.92
2023-01-17T21:21:52.650Z,3.40
2023-01-17T21:23:55.883Z,3.97
2023-01-17T21:25:58.145Z,2.55
2023-01-17T21:27:59.900Z,3.70
2023-01-17T21:30:01.773Z,2.90
2023-01-17T21:32:03.652Z,3.40
2023-01-17T21:34:10.245Z,3.53
2023-01-17T21:36:12.345Z,3.17
2023-01-17T21:38:14.550Z,3.28
2023-01-17T21:40:17.253Z,3.33
2023-01-17T21:42:19.021Z,2.67
2023-01-17T21:44:22.240Z,2.95
2023-01-17T21:46:24.562Z,3.65
2023-01-17T21:48:26.816Z,3.33
2023-01-17T21:50:33.294Z,3.42
2023-01-17T21:52:35.957Z,2.80
2023-01-17T21:54:56.417Z,3.13
2023-01-17T21:57:16.807Z,3.08
2023-01-17T21:59:18.494Z,3.05
2023-01-17T22:01:22.751Z,2.92
2023-01-17T22:03:24.667Z,2.95
2023-01-17T22:05:26.353Z,4.18
2023-01-17T22:07:29.163Z,3.42
2023-01-17T22:09:30.857Z,3.78
2023-01-17T22:11:32.790Z,2.78
2023-01-17T22:13:35.736Z,3.13
2023-01-17T22:15:37.418Z,2.92
2023-01-17T22:17:41.173Z,3.60
2023-01-17T22:19:42.834Z,3.33
2023-01-17T22:21:44.532Z,2.78
2023-01-17T22:23:47.985Z,2.58
2023-01-17T22:25:49.620Z,2.38
2023-01-17T22:27:51.432Z,3.05
2023-01-17T22:29:53.056Z,3.42
2023-01-17T22:31:54.718Z,2.35
2023-01-17T22:34:02.433Z,2.72
2023-01-17T22:36:05.243Z,3.20
2023-01-17T22:38:06.889Z,3.20
2023-01-17T22:40:10.155Z,3.92
2023-01-17T22:42:13.425Z,2.53
2023-01-17T22:44:15.111Z,3.20
2023-01-17T22:46:19.192Z,3.50
2023-01-17T22:48:20.922Z,3.03
2023-01-17T22:50:23.536Z,2.90
2023-01-17T22:52:25.687Z,2.15
2023-01-17T22:54:27.351Z,3.90
2023-01-17T22:56:32.886Z,4.55
2023-01-17T22:58:35.489Z,2.88
2023-01-17T23:00:37.139Z,2.80
2023-01-17T23:02:39.489Z,4.03
2023-01-17T23:04:41.251Z,4.25
2023-01-17T23:06:43.142Z,3.63
2023-01-17T23:08:47.267Z,3.35
2023-01-17T23:11:07.399Z,3.28
2023-01-17T23:13:10.476Z,2.83
2023-01-17T23:15:30.651Z,3.60
2023-01-17T23:17:50.734Z,3.60
2023-01-17T23:19:54.607Z,3.33
2023-01-17T23:22:16.625Z,3.97
2023-01-17T23:24:18.425Z,3.30
2023-01-17T23:26:20.117Z,3.95
2023-01-17T23:28:21.871Z,4.03
2023-01-17T23:30:28.767Z,3.92
2023-01-17T23:32:30.737Z,3.17
2023-01-17T23:34:32.406Z,3.40
2023-01-17T23:36:34.065Z,4.32
2023-01-17T23:38:38.013Z,2.95
2023-01-17T23:40:40.632Z,3.67
2023-01-17T23:43:01.150Z,3.05
2023-01-17T23:45:02.853Z,3.90
2023-01-17T23:47:04.655Z,2.92
2023-01-17T23:49:06.379Z,3.05
2023-01-17T23:51:08.375Z,3.60
2023-01-17T23:53:10.978Z,4.10
2023-01-17T23:55:13.930Z,4.40
2023-01-17T23:57:15.712Z,3.80
2023-01-17T23:59:17.480Z,4.40
